Flight Track Log - Related Links

Times and Time Zones

All times are in EDT time to prevent confusion due to time zone crossing. See the ASQ5539 flight status page for this flight to view local times or setup timezone preferences in your user account.

Time Position Orientation Groundspeed Altitude Reporting Facility
EDT Latitude Longitude Course Direction KTS MPH feet Rate Location/Type
Fri 06:25:31 PM 33.6333 -84.5000 270° West 199 229 3,500  Level Atlanta TRACON
Fri 06:26:26 PM 33.6333 -84.5667 270° West 272 313 6,000 2,020 Climbing Atlanta TRACON
Fri 06:28:47 PM 33.4983 -84.6964 219° Southwest 294 338 10,100 1,188 Climbing Atlanta Center
Fri 06:29:48 PM 33.3919 -84.6833 174° South 329 379 10,000 744 Descending Atlanta Center
Fri 06:30:48 PM 33.2919 -84.6453 162° South 354 407 11,600 2,067 Climbing Atlanta Center
Fri 06:31:47 PM 33.1897 -84.5997 160° South 371 427 14,100 2,420 Climbing Atlanta Center
Fri 06:32:47 PM 33.0875 -84.5619 163° South 391 450 16,400 2,000 Climbing Atlanta Center
Fri 06:33:47 PM 32.9814 -84.5167 160° South 391 450 18,100 1,650 Climbing Atlanta Center
Fri 06:34:47 PM 32.8667 -84.5161 180° South 398 458 19,700 1,650 Climbing Atlanta Center
Fri 06:35:47 PM 32.7600 -84.5303 186° South 417 480 21,400 1,850 Climbing Atlanta Center
Fri 06:36:47 PM 32.6636 -84.5989 211° Southwest 409 471 23,400 1,700 Climbing Atlanta Center
Fri 06:37:47 PM 32.5736 -84.6847 219° Southwest 402 463 24,800 1,289 Climbing Atlanta Center
Fri 06:38:48 PM 32.4814 -84.7678 217° Southwest 417 480 26,000 600 Climbing Atlanta Center
Fri 06:39:47 PM 32.3700 -84.8653 216° Southwest 438 504 26,000  Level Atlanta Center
Fri 06:40:47 PM 32.2672 -84.9550 216° Southwest 453 521 26,000 -69 Level Atlanta Center
Fri 06:42:40 PM 32.0928 -85.1144 218° Southwest 479 551 25,800 -416 Descending Jacksonville Center
Fri 06:43:40 PM 31.9972 -85.1978 216° Southwest 457 526 24,800 -900 Descending Jacksonville Center
Fri 06:44:40 PM 31.9039 -85.2811 217° Southwest 435 501 24,000 -400 Descending Jacksonville Center
Fri 06:45:40 PM 31.8147 -85.3644 218° Southwest 422 486 24,000  Level Jacksonville Center
Fri 06:46:40 PM 31.7256 -85.4400 216° Southwest 417 480 24,000  Level Jacksonville Center
Fri 06:47:40 PM 31.6319 -85.5228 217° Southwest 417 480 24,000  Level Jacksonville Center
Fri 06:48:40 PM 31.5383 -85.6081 218° Southwest 422 486 24,000  Level Jacksonville Center
Fri 06:49:40 PM 31.4447 -85.6906 217° Southwest 422 486 24,000 -300 Level Jacksonville Center
Fri 06:50:40 PM 31.3422 -85.7822 217° Southwest 422 486 23,400 -1,300 Descending Jacksonville Center
Fri 06:51:40 PM 31.2550 -85.8572 216° Southwest 417 480 21,400 -2,300 Descending Jacksonville Center
Fri 06:52:40 PM 31.1675 -85.9347 217° Southwest 411 473 18,800 -2,650 Descending Jacksonville Center
Fri 06:53:40 PM 31.0822 -86.0094 217° Southwest 405 466 16,100 -2,550 Descending Jacksonville Center
Fri 06:54:40 PM 31.0097 -86.0703 216° Southwest 384 442 13,700 -2,800 Descending Jacksonville Center
Fri 06:55:40 PM 30.9125 -86.1203 204° Southwest 349 402 10,500 -2,300 Descending Jacksonville Center
Fri 06:56:40 PM 30.8244 -86.1342 188° South 335 386 9,100 -1,650 Descending Jacksonville Center
Fri 06:57:40 PM 30.7386 -86.1456 187° South 318 366 7,200 -1,800 Descending Jacksonville Center
Fri 06:58:40 PM 30.6572 -86.1453 180° South 308 354 5,500 -1,500 Descending Jacksonville Center
Fri 06:59:40 PM 30.5756 -86.1472 181° South 303 349 4,200 -1,250 Descending Jacksonville Center
Fri 07:00:40 PM 30.5047 -86.1472 180° South 286 329 3,000 -1,250 Descending Jacksonville Center
Fri 07:01:40 PM 30.4514 -86.1864 212° Southwest 239 275 1,700 -700 Descending Jacksonville Center
Fri 07:02:40 PM 30.4147 -86.2381 231° Southwest 222 255 1,600 -100 Descending Jacksonville Center
Fri 07:04:00 PM 30.4425 -86.3867 282° West  Level FlightAware Approximate
Fri 07:11:00 PM 30.4667 -86.5167 264° West  Level FlightAware Approximate
Fri 07:12:00 PM 30.4832 -86.5260 264° West  Level Estimated
Fri 07:13:00 PM 30.4832 -86.5260 264° West  Level Estimated
Fri 07:14:00 PM 30.4832 -86.5260 264° West  Level Estimated
Fri 07:15:00 PM 30.4832 -86.5260 264° West  Level Estimated
Fri 07:16:00 PM 30.4832 -86.5260 264° West  Level Estimated

Login

Don't have an account? Register now (free) for customized features, flight alerts, and more!